sensor_id;sensor_type;location;lat;lon;timestamp;P1;durP1;ratioP1;P2;durP2;ratioP2
28086;SDS011;15392;48.912;8.380;2022-12-18T00:01:44;24.25;;;21.70;;
28086;SDS011;15392;48.912;8.380;2022-12-18T00:04:03;26.65;;;21.77;;
28086;SDS011;15392;48.912;8.380;2022-12-18T00:06:31;24.83;;;22.08;;
28086;SDS011;15392;48.912;8.380;2022-12-18T00:08:58;26.90;;;23.98;;
28086;SDS011;15392;48.912;8.380;2022-12-18T00:11:26;28.17;;;23.05;;
28086;SDS011;15392;48.912;8.380;2022-12-18T00:13:55;25.20;;;22.70;;
28086;SDS011;15392;48.912;8.380;2022-12-18T00:16:23;26.48;;;23.77;;
28086;SDS011;15392;48.912;8.380;2022-12-18T00:18:51;25.75;;;22.23;;
28086;SDS011;15392;48.912;8.380;2022-12-18T00:21:19;25.02;;;22.35;;
28086;SDS011;15392;48.912;8.380;2022-12-18T00:23:46;25.48;;;22.00;;
28086;SDS011;15392;48.912;8.380;2022-12-18T00:26:15;24.10;;;21.70;;
28086;SDS011;15392;48.912;8.380;2022-12-18T00:28:47;26.42;;;23.17;;
28086;SDS011;15392;48.912;8.380;2022-12-18T00:31:14;28.67;;;23.13;;
28086;SDS011;15392;48.912;8.380;2022-12-18T00:33:43;26.75;;;23.40;;
28086;SDS011;15392;48.912;8.380;2022-12-18T00:36:14;25.55;;;22.55;;
28086;SDS011;15392;48.912;8.380;2022-12-18T00:38:46;28.50;;;24.10;;
28086;SDS011;15392;48.912;8.380;2022-12-18T00:41:13;25.58;;;23.05;;
28086;SDS011;15392;48.912;8.380;2022-12-18T00:44:04;31.48;;;24.50;;
28086;SDS011;15392;48.912;8.380;2022-12-18T00:46:32;25.50;;;22.75;;
28086;SDS011;15392;48.912;8.380;2022-12-18T00:48:58;25.30;;;22.80;;
28086;SDS011;15392;48.912;8.380;2022-12-18T00:51:24;26.73;;;23.88;;
28086;SDS011;15392;48.912;8.380;2022-12-18T00:53:51;25.45;;;22.77;;
28086;SDS011;15392;48.912;8.380;2022-12-18T00:56:17;31.25;;;25.83;;
28086;SDS011;15392;48.912;8.380;2022-12-18T00:58:43;27.85;;;24.85;;
28086;SDS011;15392;48.912;8.380;2022-12-18T01:01:09;29.33;;;25.67;;
28086;SDS011;15392;48.912;8.380;2022-12-18T01:03:35;28.77;;;24.98;;
28086;SDS011;15392;48.912;8.380;2022-12-18T01:06:05;51.95;;;26.33;;
28086;SDS011;15392;48.912;8.380;2022-12-18T01:08:32;26.30;;;23.45;;
28086;SDS011;15392;48.912;8.380;2022-12-18T01:10:58;28.73;;;25.75;;
28086;SDS011;15392;48.912;8.380;2022-12-18T01:13:24;29.42;;;25.27;;
28086;SDS011;15392;48.912;8.380;2022-12-18T01:15:50;30.23;;;26.98;;
28086;SDS011;15392;48.912;8.380;2022-12-18T01:18:16;38.00;;;26.25;;
28086;SDS011;15392;48.912;8.380;2022-12-18T01:20:42;28.27;;;25.35;;
28086;SDS011;15392;48.912;8.380;2022-12-18T01:23:08;29.38;;;26.27;;
28086;SDS011;15392;48.912;8.380;2022-12-18T01:25:35;40.10;;;26.65;;
28086;SDS011;15392;48.912;8.380;2022-12-18T01:28:02;28.45;;;25.50;;
28086;SDS011;15392;48.912;8.380;2022-12-18T01:30:28;29.95;;;26.83;;
28086;SDS011;15392;48.912;8.380;2022-12-18T01:32:53;29.98;;;26.85;;
28086;SDS011;15392;48.912;8.380;2022-12-18T01:35:19;28.13;;;25.10;;
28086;SDS011;15392;48.912;8.380;2022-12-18T01:37:45;29.48;;;26.35;;
28086;SDS011;15392;48.912;8.380;2022-12-18T01:40:11;28.35;;;25.45;;
28086;SDS011;15392;48.912;8.380;2022-12-18T01:42:37;28.02;;;25.13;;
28086;SDS011;15392;48.912;8.380;2022-12-18T01:50:16;30.20;;;26.27;;
28086;SDS011;15392;48.912;8.380;2022-12-18T01:53:02;27.83;;;25.00;;
28086;SDS011;15392;48.912;8.380;2022-12-18T01:55:40;27.92;;;24.25;;
28086;SDS011;15392;48.912;8.380;2022-12-18T01:58:11;30.35;;;25.02;;
28086;SDS011;15392;48.912;8.380;2022-12-18T02:00:38;32.70;;;24.65;;
28086;SDS011;15392;48.912;8.380;2022-12-18T02:03:03;27.80;;;24.98;;
28086;SDS011;15392;48.912;8.380;2022-12-18T02:05:34;28.20;;;25.30;;
28086;SDS011;15392;48.912;8.380;2022-12-18T02:11:53;26.75;;;23.90;;
28086;SDS011;15392;48.912;8.380;2022-12-18T02:17:01;26.92;;;24.02;;
28086;SDS011;15392;48.912;8.380;2022-12-18T02:19:45;25.85;;;23.10;;
28086;SDS011;15392;48.912;8.380;2022-12-18T02:22:49;27.52;;;24.65;;
28086;SDS011;15392;48.912;8.380;2022-12-18T02:28:33;26.45;;;23.65;;
28086;SDS011;15392;48.912;8.380;2022-12-18T02:31:07;27.95;;;24.80;;
28086;SDS011;15392;48.912;8.380;2022-12-18T02:33:39;28.38;;;25.38;;
28086;SDS011;15392;48.912;8.380;2022-12-18T02:36:07;27.98;;;25.05;;
28086;SDS011;15392;48.912;8.380;2022-12-18T02:38:34;28.25;;;25.05;;
28086;SDS011;15392;48.912;8.380;2022-12-18T02:41:01;28.35;;;25.17;;
28086;SDS011;15392;48.912;8.380;2022-12-18T02:43:29;28.85;;;25.75;;
28086;SDS011;15392;48.912;8.380;2022-12-18T02:45:59;28.42;;;25.10;;
28086;SDS011;15392;48.912;8.380;2022-12-18T02:48:50;27.10;;;24.30;;
28086;SDS011;15392;48.912;8.380;2022-12-18T02:51:32;27.63;;;24.80;;
28086;SDS011;15392;48.912;8.380;2022-12-18T02:54:20;27.80;;;24.80;;
28086;SDS011;15392;48.912;8.380;2022-12-18T02:56:58;29.33;;;26.33;;
28086;SDS011;15392;48.912;8.380;2022-12-18T03:00:01;28.08;;;25.10;;
28086;SDS011;15392;48.912;8.380;2022-12-18T03:02:42;28.45;;;25.30;;
28086;SDS011;15392;48.912;8.380;2022-12-18T03:05:17;28.90;;;25.88;;
28086;SDS011;15392;48.912;8.380;2022-12-18T03:07:57;27.02;;;24.17;;
28086;SDS011;15392;48.912;8.380;2022-12-18T03:10:31;25.45;;;22.85;;
28086;SDS011;15392;48.912;8.380;2022-12-18T03:13:06;24.13;;;21.73;;
28086;SDS011;15392;48.912;8.380;2022-12-18T03:15:38;26.67;;;23.80;;
28086;SDS011;15392;48.912;8.380;2022-12-18T03:18:12;25.55;;;22.88;;
28086;SDS011;15392;48.912;8.380;2022-12-18T03:20:44;27.40;;;24.52;;
28086;SDS011;15392;48.912;8.380;2022-12-18T03:23:14;24.52;;;22.08;;
28086;SDS011;15392;48.912;8.380;2022-12-18T03:25:44;26.75;;;24.00;;
28086;SDS011;15392;48.912;8.380;2022-12-18T03:28:15;23.58;;;21.17;;
28086;SDS011;15392;48.912;8.380;2022-12-18T03:30:46;25.05;;;22.20;;
28086;SDS011;15392;48.912;8.380;2022-12-18T03:33:27;22.52;;;20.30;;
28086;SDS011;15392;48.912;8.380;2022-12-18T03:36:00;23.88;;;21.48;;
28086;SDS011;15392;48.912;8.380;2022-12-18T03:38:27;29.88;;;21.90;;
28086;SDS011;15392;48.912;8.380;2022-12-18T03:40:54;23.92;;;21.42;;
28086;SDS011;15392;48.912;8.380;2022-12-18T03:43:41;23.90;;;21.10;;
28086;SDS011;15392;48.912;8.380;2022-12-18T03:46:25;28.55;;;20.90;;
28086;SDS011;15392;48.912;8.380;2022-12-18T03:52:03;21.15;;;19.05;;
28086;SDS011;15392;48.912;8.380;2022-12-18T03:54:40;19.85;;;17.98;;
28086;SDS011;15392;48.912;8.380;2022-12-18T03:57:15;20.17;;;18.27;;
28086;SDS011;15392;48.912;8.380;2022-12-18T03:59:45;22.17;;;19.98;;
28086;SDS011;15392;48.912;8.380;2022-12-18T04:02:16;21.38;;;19.33;;
28086;SDS011;15392;48.912;8.380;2022-12-18T04:04:42;21.05;;;18.98;;
28086;SDS011;15392;48.912;8.380;2022-12-18T04:07:12;21.95;;;19.75;;
28086;SDS011;15392;48.912;8.380;2022-12-18T04:09:39;22.40;;;20.25;;
28086;SDS011;15392;48.912;8.380;2022-12-18T04:12:08;22.10;;;19.95;;
28086;SDS011;15392;48.912;8.380;2022-12-18T04:14:34;23.77;;;21.45;;
28086;SDS011;15392;48.912;8.380;2022-12-18T04:17:00;24.38;;;22.00;;
28086;SDS011;15392;48.912;8.380;2022-12-18T04:19:27;23.30;;;20.83;;
28086;SDS011;15392;48.912;8.380;2022-12-18T04:21:53;23.20;;;20.85;;
28086;SDS011;15392;48.912;8.380;2022-12-18T04:24:19;23.63;;;21.23;;
28086;SDS011;15392;48.912;8.380;2022-12-18T04:26:45;21.77;;;19.58;;
28086;SDS011;15392;48.912;8.380;2022-12-18T04:29:11;22.85;;;20.48;;
28086;SDS011;15392;48.912;8.380;2022-12-18T04:31:37;22.15;;;19.95;;
28086;SDS011;15392;48.912;8.380;2022-12-18T04:34:03;23.58;;;20.90;;
28086;SDS011;15392;48.912;8.380;2022-12-18T04:36:29;22.58;;;20.30;;
28086;SDS011;15392;48.912;8.380;2022-12-18T04:38:55;24.50;;;22.08;;
28086;SDS011;15392;48.912;8.380;2022-12-18T04:41:21;22.60;;;20.33;;
28086;SDS011;15392;48.912;8.380;2022-12-18T04:43:46;24.42;;;21.83;;
28086;SDS011;15392;48.912;8.380;2022-12-18T04:46:12;24.70;;;21.00;;
28086;SDS011;15392;48.912;8.380;2022-12-18T04:48:38;24.75;;;22.15;;
28086;SDS011;15392;48.912;8.380;2022-12-18T04:51:04;25.13;;;22.50;;
28086;SDS011;15392;48.912;8.380;2022-12-18T04:53:31;24.90;;;22.30;;
28086;SDS011;15392;48.912;8.380;2022-12-18T04:56:07;24.30;;;21.80;;
28086;SDS011;15392;48.912;8.380;2022-12-18T04:58:36;24.90;;;22.30;;
28086;SDS011;15392;48.912;8.380;2022-12-18T05:01:03;24.77;;;22.17;;
28086;SDS011;15392;48.912;8.380;2022-12-18T05:03:29;25.02;;;22.45;;
28086;SDS011;15392;48.912;8.380;2022-12-18T05:05:55;24.42;;;21.92;;
28086;SDS011;15392;48.912;8.380;2022-12-18T05:08:21;26.65;;;23.48;;
28086;SDS011;15392;48.912;8.380;2022-12-18T05:10:46;26.35;;;23.55;;
28086;SDS011;15392;48.912;8.380;2022-12-18T05:13:12;26.95;;;24.10;;
28086;SDS011;15392;48.912;8.380;2022-12-18T05:15:38;26.25;;;23.45;;
28086;SDS011;15392;48.912;8.380;2022-12-18T05:18:03;27.73;;;24.73;;
28086;SDS011;15392;48.912;8.380;2022-12-18T05:20:29;27.77;;;24.80;;
28086;SDS011;15392;48.912;8.380;2022-12-18T05:22:56;27.10;;;24.17;;
28086;SDS011;15392;48.912;8.380;2022-12-18T05:25:22;28.35;;;25.27;;
28086;SDS011;15392;48.912;8.380;2022-12-18T05:27:49;27.25;;;23.85;;
28086;SDS011;15392;48.912;8.380;2022-12-18T05:30:14;26.20;;;23.40;;
28086;SDS011;15392;48.912;8.380;2022-12-18T05:32:41;26.55;;;23.67;;
28086;SDS011;15392;48.912;8.380;2022-12-18T05:35:07;27.15;;;24.15;;
28086;SDS011;15392;48.912;8.380;2022-12-18T05:37:35;34.03;;;25.80;;
28086;SDS011;15392;48.912;8.380;2022-12-18T05:40:01;26.92;;;24.02;;
28086;SDS011;15392;48.912;8.380;2022-12-18T05:42:28;29.05;;;25.45;;
28086;SDS011;15392;48.912;8.380;2022-12-18T05:44:55;28.58;;;25.13;;
28086;SDS011;15392;48.912;8.380;2022-12-18T05:47:21;27.90;;;24.60;;
28086;SDS011;15392;48.912;8.380;2022-12-18T05:49:46;27.75;;;24.85;;
28086;SDS011;15392;48.912;8.380;2022-12-18T05:52:12;29.05;;;25.92;;
28086;SDS011;15392;48.912;8.380;2022-12-18T05:54:38;27.38;;;24.42;;
28086;SDS011;15392;48.912;8.380;2022-12-18T05:57:04;29.05;;;25.40;;
28086;SDS011;15392;48.912;8.380;2022-12-18T05:59:30;27.45;;;24.50;;
28086;SDS011;15392;48.912;8.380;2022-12-18T06:01:55;28.63;;;23.63;;
28086;SDS011;15392;48.912;8.380;2022-12-18T06:04:21;26.60;;;23.73;;
28086;SDS011;15392;48.912;8.380;2022-12-18T06:06:48;28.42;;;24.95;;
28086;SDS011;15392;48.912;8.380;2022-12-18T06:09:13;25.58;;;22.83;;
28086;SDS011;15392;48.912;8.380;2022-12-18T06:11:39;26.38;;;22.33;;
28086;SDS011;15392;48.912;8.380;2022-12-18T06:14:05;25.52;;;22.90;;
28086;SDS011;15392;48.912;8.380;2022-12-18T06:16:31;24.45;;;21.75;;
28086;SDS011;15392;48.912;8.380;2022-12-18T06:18:58;26.08;;;23.45;;
28086;SDS011;15392;48.912;8.380;2022-12-18T06:21:25;24.10;;;21.63;;
28086;SDS011;15392;48.912;8.380;2022-12-18T06:23:51;24.40;;;21.77;;
28086;SDS011;15392;48.912;8.380;2022-12-18T06:26:17;24.35;;;21.85;;
28086;SDS011;15392;48.912;8.380;2022-12-18T06:28:43;25.90;;;23.23;;
28086;SDS011;15392;48.912;8.380;2022-12-18T06:31:09;24.23;;;21.75;;
28086;SDS011;15392;48.912;8.380;2022-12-18T06:33:35;25.63;;;22.85;;
28086;SDS011;15392;48.912;8.380;2022-12-18T06:36:04;26.45;;;23.60;;
28086;SDS011;15392;48.912;8.380;2022-12-18T06:38:39;24.98;;;22.45;;
28086;SDS011;15392;48.912;8.380;2022-12-18T06:41:07;25.13;;;22.52;;
28086;SDS011;15392;48.912;8.380;2022-12-18T06:43:42;24.50;;;21.77;;
28086;SDS011;15392;48.912;8.380;2022-12-18T06:46:09;24.98;;;22.35;;
28086;SDS011;15392;48.912;8.380;2022-12-18T06:48:35;26.77;;;23.88;;
28086;SDS011;15392;48.912;8.380;2022-12-18T06:51:01;27.27;;;23.92;;
28086;SDS011;15392;48.912;8.380;2022-12-18T06:53:27;28.30;;;25.27;;
28086;SDS011;15392;48.912;8.380;2022-12-18T06:55:59;25.75;;;23.05;;
28086;SDS011;15392;48.912;8.380;2022-12-18T06:58:30;25.80;;;22.95;;
28086;SDS011;15392;48.912;8.380;2022-12-18T07:01:03;27.02;;;24.10;;
28086;SDS011;15392;48.912;8.380;2022-12-18T07:03:31;26.98;;;24.08;;
28086;SDS011;15392;48.912;8.380;2022-12-18T07:05:57;28.52;;;24.67;;
28086;SDS011;15392;48.912;8.380;2022-12-18T07:08:23;32.15;;;26.45;;
28086;SDS011;15392;48.912;8.380;2022-12-18T07:10:49;31.25;;;26.42;;
28086;SDS011;15392;48.912;8.380;2022-12-18T07:13:15;30.95;;;26.48;;
28086;SDS011;15392;48.912;8.380;2022-12-18T07:15:42;30.02;;;24.83;;
28086;SDS011;15392;48.912;8.380;2022-12-18T07:18:08;28.58;;;25.50;;
28086;SDS011;15392;48.912;8.380;2022-12-18T07:20:34;31.25;;;25.65;;
28086;SDS011;15392;48.912;8.380;2022-12-18T07:23:04;29.70;;;25.45;;
28086;SDS011;15392;48.912;8.380;2022-12-18T07:25:33;26.90;;;23.60;;
28086;SDS011;15392;48.912;8.380;2022-12-18T07:28:01;29.13;;;25.42;;
28086;SDS011;15392;48.912;8.380;2022-12-18T07:30:27;26.48;;;23.65;;
28086;SDS011;15392;48.912;8.380;2022-12-18T07:32:53;29.73;;;24.35;;
28086;SDS011;15392;48.912;8.380;2022-12-18T07:35:18;29.38;;;24.52;;
28086;SDS011;15392;48.912;8.380;2022-12-18T07:37:44;27.17;;;23.67;;
28086;SDS011;15392;48.912;8.380;2022-12-18T07:40:10;28.17;;;24.67;;
28086;SDS011;15392;48.912;8.380;2022-12-18T07:42:37;31.75;;;27.02;;
28086;SDS011;15392;48.912;8.380;2022-12-18T07:45:02;28.38;;;24.25;;
28086;SDS011;15392;48.912;8.380;2022-12-18T07:47:29;26.10;;;23.30;;
28086;SDS011;15392;48.912;8.380;2022-12-18T07:49:57;27.42;;;23.90;;
28086;SDS011;15392;48.912;8.380;2022-12-18T07:52:23;26.48;;;23.65;;
28086;SDS011;15392;48.912;8.380;2022-12-18T07:54:49;27.63;;;23.85;;
28086;SDS011;15392;48.912;8.380;2022-12-18T07:57:15;27.02;;;24.15;;
28086;SDS011;15392;48.912;8.380;2022-12-18T07:59:42;28.70;;;24.50;;
28086;SDS011;15392;48.912;8.380;2022-12-18T08:02:07;30.92;;;26.10;;
28086;SDS011;15392;48.912;8.380;2022-12-18T08:04:33;27.13;;;23.88;;
28086;SDS011;15392;48.912;8.380;2022-12-18T08:06:59;26.83;;;23.95;;
28086;SDS011;15392;48.912;8.380;2022-12-18T08:09:24;27.15;;;23.95;;
28086;SDS011;15392;48.912;8.380;2022-12-18T08:11:50;28.50;;;23.35;;
28086;SDS011;15392;48.912;8.380;2022-12-18T08:14:16;28.33;;;23.30;;
28086;SDS011;15392;48.912;8.380;2022-12-18T08:16:41;25.40;;;21.90;;
28086;SDS011;15392;48.912;8.380;2022-12-18T08:19:07;25.40;;;22.60;;
28086;SDS011;15392;48.912;8.380;2022-12-18T08:21:35;25.60;;;22.20;;
28086;SDS011;15392;48.912;8.380;2022-12-18T08:24:02;25.67;;;22.50;;
28086;SDS011;15392;48.912;8.380;2022-12-18T08:26:29;24.65;;;22.05;;
28086;SDS011;15392;48.912;8.380;2022-12-18T08:28:56;26.95;;;22.25;;
28086;SDS011;15392;48.912;8.380;2022-12-18T08:31:24;25.20;;;21.80;;
28086;SDS011;15392;48.912;8.380;2022-12-18T08:33:52;27.42;;;22.00;;
28086;SDS011;15392;48.912;8.380;2022-12-18T08:36:18;26.63;;;21.17;;
28086;SDS011;15392;48.912;8.380;2022-12-18T08:38:45;30.63;;;24.10;;
28086;SDS011;15392;48.912;8.380;2022-12-18T08:41:13;36.72;;;30.10;;
28086;SDS011;15392;48.912;8.380;2022-12-18T08:43:41;32.13;;;26.47;;
28086;SDS011;15392;48.912;8.380;2022-12-18T08:46:26;29.65;;;23.42;;
28086;SDS011;15392;48.912;8.380;2022-12-18T08:48:57;28.50;;;23.48;;
28086;SDS011;15392;48.912;8.380;2022-12-18T08:51:23;26.25;;;22.75;;
28086;SDS011;15392;48.912;8.380;2022-12-18T08:53:48;29.52;;;23.58;;
28086;SDS011;15392;48.912;8.380;2022-12-18T08:56:14;28.92;;;22.92;;
28086;SDS011;15392;48.912;8.380;2022-12-18T08:58:40;28.23;;;23.00;;
28086;SDS011;15392;48.912;8.380;2022-12-18T09:01:07;27.80;;;22.70;;
28086;SDS011;15392;48.912;8.380;2022-12-18T09:03:35;28.45;;;22.33;;
28086;SDS011;15392;48.912;8.380;2022-12-18T09:06:01;35.65;;;28.15;;
28086;SDS011;15392;48.912;8.380;2022-12-18T09:08:28;31.63;;;24.20;;
28086;SDS011;15392;48.912;8.380;2022-12-18T09:10:54;29.58;;;22.77;;
28086;SDS011;15392;48.912;8.380;2022-12-18T09:13:20;30.00;;;23.23;;
28086;SDS011;15392;48.912;8.380;2022-12-18T09:15:47;29.30;;;23.45;;
28086;SDS011;15392;48.912;8.380;2022-12-18T09:18:16;26.83;;;22.00;;
28086;SDS011;15392;48.912;8.380;2022-12-18T09:20:43;27.30;;;21.58;;
28086;SDS011;15392;48.912;8.380;2022-12-18T09:23:09;27.50;;;22.85;;
28086;SDS011;15392;48.912;8.380;2022-12-18T09:25:36;26.63;;;21.67;;
28086;SDS011;15392;48.912;8.380;2022-12-18T09:28:04;28.02;;;22.92;;
28086;SDS011;15392;48.912;8.380;2022-12-18T09:30:36;27.13;;;22.35;;
28086;SDS011;15392;48.912;8.380;2022-12-18T09:33:04;26.03;;;21.17;;
28086;SDS011;15392;48.912;8.380;2022-12-18T09:35:30;27.27;;;20.98;;
28086;SDS011;15392;48.912;8.380;2022-12-18T09:37:55;24.50;;;20.38;;
28086;SDS011;15392;48.912;8.380;2022-12-18T09:40:22;24.25;;;20.40;;
28086;SDS011;15392;48.912;8.380;2022-12-18T09:43:00;25.55;;;20.42;;
28086;SDS011;15392;48.912;8.380;2022-12-18T09:45:31;24.90;;;21.23;;
28086;SDS011;15392;48.912;8.380;2022-12-18T09:48:14;26.05;;;21.30;;
28086;SDS011;15392;48.912;8.380;2022-12-18T09:50:47;25.95;;;20.38;;
28086;SDS011;15392;48.912;8.380;2022-12-18T09:53:16;25.88;;;21.20;;
28086;SDS011;15392;48.912;8.380;2022-12-18T09:55:49;22.48;;;19.65;;
28086;SDS011;15392;48.912;8.380;2022-12-18T09:58:32;25.67;;;21.08;;
28086;SDS011;15392;48.912;8.380;2022-12-18T10:01:15;23.02;;;20.52;;
28086;SDS011;15392;48.912;8.380;2022-12-18T10:03:47;24.40;;;20.42;;
28086;SDS011;15392;48.912;8.380;2022-12-18T10:06:33;45.20;;;35.17;;
28086;SDS011;15392;48.912;8.380;2022-12-18T10:09:23;31.50;;;25.55;;
28086;SDS011;15392;48.912;8.380;2022-12-18T10:12:02;25.20;;;21.48;;
28086;SDS011;15392;48.912;8.380;2022-12-18T10:14:54;23.90;;;19.95;;
28086;SDS011;15392;48.912;8.380;2022-12-18T10:20:16;24.80;;;21.10;;
28086;SDS011;15392;48.912;8.380;2022-12-18T10:22:57;25.35;;;20.08;;
28086;SDS011;15392;48.912;8.380;2022-12-18T10:26:07;22.77;;;19.60;;
28086;SDS011;15392;48.912;8.380;2022-12-18T10:28:36;24.50;;;20.73;;
28086;SDS011;15392;48.912;8.380;2022-12-18T10:31:05;24.67;;;19.77;;
28086;SDS011;15392;48.912;8.380;2022-12-18T10:33:42;23.02;;;19.63;;
28086;SDS011;15392;48.912;8.380;2022-12-18T10:36:08;24.95;;;21.02;;
28086;SDS011;15392;48.912;8.380;2022-12-18T10:38:35;26.05;;;21.48;;
28086;SDS011;15392;48.912;8.380;2022-12-18T10:46:44;23.52;;;19.98;;
28086;SDS011;15392;48.912;8.380;2022-12-18T10:49:27;24.33;;;20.52;;
28086;SDS011;15392;48.912;8.380;2022-12-18T10:52:06;25.88;;;20.95;;
28086;SDS011;15392;48.912;8.380;2022-12-18T10:54:54;24.58;;;20.65;;
28086;SDS011;15392;48.912;8.380;2022-12-18T10:57:32;23.08;;;19.48;;
28086;SDS011;15392;48.912;8.380;2022-12-18T11:02:55;26.20;;;21.88;;
28086;SDS011;15392;48.912;8.380;2022-12-18T11:07:54;25.73;;;20.90;;
28086;SDS011;15392;48.912;8.380;2022-12-18T11:10:32;22.50;;;19.42;;
28086;SDS011;15392;48.912;8.380;2022-12-18T11:13:14;22.52;;;19.42;;
28086;SDS011;15392;48.912;8.380;2022-12-18T11:15:45;26.08;;;19.50;;
28086;SDS011;15392;48.912;8.380;2022-12-18T11:18:18;26.70;;;21.33;;
28086;SDS011;15392;48.912;8.380;2022-12-18T11:21:05;33.53;;;24.85;;
28086;SDS011;15392;48.912;8.380;2022-12-18T11:23:34;27.33;;;21.85;;
28086;SDS011;15392;48.912;8.380;2022-12-18T11:26:02;26.33;;;21.10;;
28086;SDS011;15392;48.912;8.380;2022-12-18T11:31:27;23.10;;;19.50;;
28086;SDS011;15392;48.912;8.380;2022-12-18T11:34:01;22.67;;;20.08;;
28086;SDS011;15392;48.912;8.380;2022-12-18T11:36:39;23.85;;;21.02;;
28086;SDS011;15392;48.912;8.380;2022-12-18T11:39:15;24.88;;;21.83;;
28086;SDS011;15392;48.912;8.380;2022-12-18T11:42:10;24.95;;;21.35;;
28086;SDS011;15392;48.912;8.380;2022-12-18T11:44:52;23.90;;;21.25;;
28086;SDS011;15392;48.912;8.380;2022-12-18T11:47:40;26.23;;;21.98;;
28086;SDS011;15392;48.912;8.380;2022-12-18T11:53:18;23.17;;;20.63;;
28086;SDS011;15392;48.912;8.380;2022-12-18T12:06:40;24.77;;;21.98;;
28086;SDS011;15392;48.912;8.380;2022-12-18T12:09:22;25.20;;;22.42;;
28086;SDS011;15392;48.912;8.380;2022-12-18T12:20:42;29.73;;;24.85;;
28086;SDS011;15392;48.912;8.380;2022-12-18T12:26:04;27.10;;;23.27;;
28086;SDS011;15392;48.912;8.380;2022-12-18T12:31:30;25.42;;;22.77;;
28086;SDS011;15392;48.912;8.380;2022-12-18T12:34:01;26.63;;;22.90;;
28086;SDS011;15392;48.912;8.380;2022-12-18T12:39:59;28.77;;;25.55;;
28086;SDS011;15392;48.912;8.380;2022-12-18T12:42:44;30.10;;;25.85;;
28086;SDS011;15392;48.912;8.380;2022-12-18T12:45:37;29.05;;;24.65;;
28086;SDS011;15392;48.912;8.380;2022-12-18T12:48:18;27.05;;;23.80;;
28086;SDS011;15392;48.912;8.380;2022-12-18T12:51:01;28.25;;;24.08;;
28086;SDS011;15392;48.912;8.380;2022-12-18T12:53:45;27.58;;;23.23;;
28086;SDS011;15392;48.912;8.380;2022-12-18T12:56:12;28.88;;;24.27;;
28086;SDS011;15392;48.912;8.380;2022-12-18T13:01:41;25.02;;;20.98;;
28086;SDS011;15392;48.912;8.380;2022-12-18T13:04:41;25.52;;;21.35;;
28086;SDS011;15392;48.912;8.380;2022-12-18T13:07:15;26.15;;;22.20;;
28086;SDS011;15392;48.912;8.380;2022-12-18T13:10:19;30.63;;;26.75;;
28086;SDS011;15392;48.912;8.380;2022-12-18T13:12:58;26.10;;;22.50;;
28086;SDS011;15392;48.912;8.380;2022-12-18T13:15:38;23.02;;;20.55;;
28086;SDS011;15392;48.912;8.380;2022-12-18T13:18:27;25.95;;;21.88;;
28086;SDS011;15392;48.912;8.380;2022-12-18T13:25:51;25.48;;;21.80;;
28086;SDS011;15392;48.912;8.380;2022-12-18T13:34:25;24.63;;;21.42;;
28086;SDS011;15392;48.912;8.380;2022-12-18T13:36:57;23.35;;;20.02;;
28086;SDS011;15392;48.912;8.380;2022-12-18T13:39:57;23.65;;;20.33;;
28086;SDS011;15392;48.912;8.380;2022-12-18T13:45:34;24.38;;;21.38;;
28086;SDS011;15392;48.912;8.380;2022-12-18T13:48:10;24.85;;;20.92;;
28086;SDS011;15392;48.912;8.380;2022-12-18T13:50:41;24.20;;;20.90;;
28086;SDS011;15392;48.912;8.380;2022-12-18T13:53:11;24.58;;;21.30;;
28086;SDS011;15392;48.912;8.380;2022-12-18T13:55:47;22.67;;;20.27;;
28086;SDS011;15392;48.912;8.380;2022-12-18T13:58:14;23.27;;;20.35;;
28086;SDS011;15392;48.912;8.380;2022-12-18T14:00:41;24.88;;;21.25;;
28086;SDS011;15392;48.912;8.380;2022-12-18T14:03:18;24.23;;;21.70;;
28086;SDS011;15392;48.912;8.380;2022-12-18T14:05:54;30.30;;;24.02;;
28086;SDS011;15392;48.912;8.380;2022-12-18T14:08:24;30.20;;;23.73;;
28086;SDS011;15392;48.912;8.380;2022-12-18T14:10:58;27.70;;;22.92;;
28086;SDS011;15392;48.912;8.380;2022-12-18T14:13:27;26.60;;;22.48;;
28086;SDS011;15392;48.912;8.380;2022-12-18T14:15:56;24.60;;;21.60;;
28086;SDS011;15392;48.912;8.380;2022-12-18T14:21:18;24.02;;;20.20;;
28086;SDS011;15392;48.912;8.380;2022-12-18T14:23:47;22.88;;;20.27;;
28086;SDS011;15392;48.912;8.380;2022-12-18T14:26:20;23.45;;;20.92;;
28086;SDS011;15392;48.912;8.380;2022-12-18T14:28:58;28.50;;;23.67;;
28086;SDS011;15392;48.912;8.380;2022-12-18T14:31:39;40.30;;;34.58;;
28086;SDS011;15392;48.912;8.380;2022-12-18T14:34:07;32.05;;;28.10;;
28086;SDS011;15392;48.912;8.380;2022-12-18T14:36:41;28.45;;;25.20;;
28086;SDS011;15392;48.912;8.380;2022-12-18T14:39:17;28.17;;;24.35;;
28086;SDS011;15392;48.912;8.380;2022-12-18T14:41:43;30.52;;;25.05;;
28086;SDS011;15392;48.912;8.380;2022-12-18T14:44:10;28.27;;;24.33;;
28086;SDS011;15392;48.912;8.380;2022-12-18T14:46:38;25.70;;;22.98;;
28086;SDS011;15392;48.912;8.380;2022-12-18T14:52:06;26.13;;;22.40;;
28086;SDS011;15392;48.912;8.380;2022-12-18T14:54:51;25.75;;;22.08;;
28086;SDS011;15392;48.912;8.380;2022-12-18T14:57:20;25.30;;;22.10;;
28086;SDS011;15392;48.912;8.380;2022-12-18T14:59:49;27.05;;;23.23;;
28086;SDS011;15392;48.912;8.380;2022-12-18T15:07:44;23.52;;;21.02;;
28086;SDS011;15392;48.912;8.380;2022-12-18T15:10:16;25.02;;;22.33;;
28086;SDS011;15392;48.912;8.380;2022-12-18T15:20:41;23.65;;;21.00;;
28086;SDS011;15392;48.912;8.380;2022-12-18T15:23:22;22.85;;;20.38;;
28086;SDS011;15392;48.912;8.380;2022-12-18T15:26:04;23.80;;;21.15;;
28086;SDS011;15392;48.912;8.380;2022-12-18T15:28:37;24.80;;;22.25;;
28086;SDS011;15392;48.912;8.380;2022-12-18T15:33:38;27.67;;;23.17;;
28086;SDS011;15392;48.912;8.380;2022-12-18T15:36:12;27.27;;;23.17;;
28086;SDS011;15392;48.912;8.380;2022-12-18T15:38:39;28.25;;;23.95;;
28086;SDS011;15392;48.912;8.380;2022-12-18T15:41:05;28.13;;;23.67;;
28086;SDS011;15392;48.912;8.380;2022-12-18T15:43:38;27.05;;;23.13;;
28086;SDS011;15392;48.912;8.380;2022-12-18T15:46:05;23.70;;;21.05;;
28086;SDS011;15392;48.912;8.380;2022-12-18T15:48:43;24.90;;;21.33;;
28086;SDS011;15392;48.912;8.380;2022-12-18T15:51:16;23.30;;;20.77;;
28086;SDS011;15392;48.912;8.380;2022-12-18T15:53:46;25.63;;;22.42;;
28086;SDS011;15392;48.912;8.380;2022-12-18T15:56:17;26.85;;;23.17;;
28086;SDS011;15392;48.912;8.380;2022-12-18T15:59:10;26.00;;;22.98;;
28086;SDS011;15392;48.912;8.380;2022-12-18T16:01:43;25.73;;;22.42;;
28086;SDS011;15392;48.912;8.380;2022-12-18T16:04:13;24.35;;;21.77;;
28086;SDS011;15392;48.912;8.380;2022-12-18T16:06:42;26.05;;;23.23;;
28086;SDS011;15392;48.912;8.380;2022-12-18T16:09:08;26.67;;;23.77;;
28086;SDS011;15392;48.912;8.380;2022-12-18T16:11:34;25.95;;;23.15;;
28086;SDS011;15392;48.912;8.380;2022-12-18T16:16:42;27.58;;;24.15;;
28086;SDS011;15392;48.912;8.380;2022-12-18T16:19:08;27.80;;;23.10;;
28086;SDS011;15392;48.912;8.380;2022-12-18T16:21:33;29.77;;;24.73;;
28086;SDS011;15392;48.912;8.380;2022-12-18T16:23:59;27.80;;;23.83;;
28086;SDS011;15392;48.912;8.380;2022-12-18T16:26:25;29.45;;;24.00;;
28086;SDS011;15392;48.912;8.380;2022-12-18T16:28:50;29.27;;;24.25;;
28086;SDS011;15392;48.912;8.380;2022-12-18T16:31:18;27.70;;;23.83;;